Time;durP1;ratioP1;P1;durP2;ratioP2;P2;SDS_P1;SDS_P2;PMS_P1;PMS_P2;Temp;Humidity;BMP_temperature;BMP_pressure;BME280_temperature;BME280_humidity;BME280_pressure;Samples;Min_cycle;Max_cycle;Signal;HPM_P1;HPM_P2
2022/07/21 00:01:31;;;;;;;;;;;20.30;99.90;;;;;;5074506;28;19908;-77
2022/07/21 00:03:57;;;;;;;;;;;20.30;99.90;;;;;;5074280;28;19975;-79
2022/07/21 00:06:22;;;;;;;;;;;20.20;99.90;;;;;;5074724;28;19912;-79
2022/07/21 00:08:48;;;;;;;;;;;20.00;99.90;;;;;;5074387;28;20280;-80
2022/07/21 00:11:13;;;;;;;;;;;20.00;99.90;;;;;;5074543;28;20003;-78
2022/07/21 00:13:39;;;;;;;;;;;19.90;99.90;;;;;;5056607;28;19924;-78
2022/07/21 00:16:05;;;;;;;;;;;19.80;99.90;;;;;;5078349;28;19909;-79
2022/07/21 00:18:31;;;;;;;;;;;19.80;99.90;;;;;;5079331;28;20491;-78
2022/07/21 00:20:56;;;;;;;;;;;19.70;99.90;;;;;;5078679;28;19996;-79
2022/07/21 00:23:25;;;;;;;;;;;19.60;99.90;;;;;;5078221;28;19915;-79
2022/07/21 00:25:51;;;;;;;;;;;19.70;99.90;;;;;;5078539;28;19913;-81
2022/07/21 00:28:17;;;;;;;;;;;19.70;99.90;;;;;;5078036;28;20401;-79
2022/07/21 00:30:42;;;;;;;;;;;19.50;99.90;;;;;;5078264;28;19954;-78
2022/07/21 00:33:08;;;;;;;;;;;19.40;99.90;;;;;;5078134;28;19917;-80
2022/07/21 00:35:33;;;;;;;;;;;19.30;99.90;;;;;;5078323;28;19908;-79
2022/07/21 00:37:59;;;;;;;;;;;19.30;99.90;;;;;;5077847;28;19912;-79
2022/07/21 00:40:25;;;;;;;;;;;19.30;99.90;;;;;;5078444;28;19912;-81
2022/07/21 00:42:50;;;;;;;;;;;19.40;99.90;;;;;;5077122;28;20357;-78
2022/07/21 00:45:16;;;;;;;;;;;19.30;99.90;;;;;;5057491;28;19909;-80
2022/07/21 00:47:41;;;;;;;;;;;19.30;99.90;;;;;;5057419;28;19909;-81
2022/07/21 00:50:09;;;;;;;;;;;19.10;99.90;;;;;;5057904;28;19909;-79
2022/07/21 00:52:35;;;;;;;;;;;19.00;99.90;;;;;;5057579;28;19962;-79
2022/07/21 00:55:01;;;;;;;;;;;18.90;99.90;;;;;;5057521;28;19996;-81
2022/07/21 00:57:27;;;;;;;;;;;18.80;99.90;;;;;;5057443;28;19991;-79
2022/07/21 00:59:53;;;;;;;;;;;18.70;99.90;;;;;;5058199;28;20434;-78
2022/07/21 01:02:18;;;;;;;;;;;18.80;99.90;;;;;;5057338;28;19912;-79
2022/07/21 01:04:44;;;;;;;;;;;18.80;99.90;;;;;;5056996;28;19909;-79
2022/07/21 01:07:10;;;;;;;;;;;18.70;99.90;;;;;;5057630;28;19909;-77
2022/07/21 01:09:36;;;;;;;;;;;18.60;99.90;;;;;;5057160;28;20357;-78
2022/07/21 01:12:02;;;;;;;;;;;18.60;99.90;;;;;;5057496;28;19909;-79
2022/07/21 01:14:28;;;;;;;;;;;18.60;99.90;;;;;;5050645;28;19924;-80
2022/07/21 01:16:57;;;;;;;;;;;18.50;99.90;;;;;;5077516;28;20361;-79
2022/07/21 01:19:22;;;;;;;;;;;18.50;99.90;;;;;;5077284;28;19908;-78
2022/07/21 01:21:50;;;;;;;;;;;18.40;99.90;;;;;;5077420;28;19919;-79
2022/07/21 01:24:15;;;;;;;;;;;18.50;99.90;;;;;;5075975;28;19908;-80
2022/07/21 01:26:45;;;;;;;;;;;18.60;99.90;;;;;;5076386;28;19916;-79
2022/07/21 01:29:11;;;;;;;;;;;18.70;99.90;;;;;;5077036;28;19916;-79
2022/07/21 01:31:38;;;;;;;;;;;18.60;99.90;;;;;;5076943;28;20332;-78
2022/07/21 01:34:04;;;;;;;;;;;18.60;99.90;;;;;;5058347;28;20300;-81
2022/07/21 01:36:29;;;;;;;;;;;18.50;99.90;;;;;;5076470;28;19908;-80
2022/07/21 01:41:39;;;;;;;;;;;18.60;99.90;;;;;;5084894;28;19962;-77
2022/07/21 01:44:09;;;;;;;;;;;18.40;99.90;;;;;;5096223;28;19908;-81
2022/07/21 01:46:38;;;;;;;;;;;18.40;99.90;;;;;;5096870;28;19908;-81
2022/07/21 01:49:03;;;;;;;;;;;18.30;99.90;;;;;;5097023;28;19915;-79
2022/07/21 01:51:29;;;;;;;;;;;18.30;99.90;;;;;;5096195;28;19908;-82
2022/07/21 01:53:55;;;;;;;;;;;18.20;99.90;;;;;;5096105;28;20395;-79
2022/07/21 01:56:24;;;;;;;;;;;17.80;99.90;;;;;;5096468;28;20000;-77
2022/07/21 01:58:50;;;;;;;;;;;17.90;99.90;;;;;;5096259;28;19908;-79
2022/07/21 02:01:16;;;;;;;;;;;17.90;99.90;;;;;;5096523;28;20016;-77
2022/07/21 02:03:42;;;;;;;;;;;18.00;99.90;;;;;;5096245;28;20016;-79
2022/07/21 02:06:08;;;;;;;;;;;18.00;99.90;;;;;;5096431;28;20072;-80
2022/07/21 02:08:34;;;;;;;;;;;17.90;99.90;;;;;;5096147;28;19908;-78
2022/07/21 02:11:00;;;;;;;;;;;17.90;99.90;;;;;;5096314;28;19908;-79
2022/07/21 02:13:25;;;;;;;;;;;17.90;99.90;;;;;;5095925;28;19912;-80
2022/07/21 02:15:51;;;;;;;;;;;17.70;99.90;;;;;;5076058;28;20288;-79
2022/07/21 02:18:17;;;;;;;;;;;17.70;99.90;;;;;;5096639;28;20057;-79
2022/07/21 02:20:44;;;;;;;;;;;17.60;99.90;;;;;;5095985;28;19909;-77
2022/07/21 02:23:10;;;;;;;;;;;17.50;99.90;;;;;;5095896;28;20279;-81
2022/07/21 02:25:36;;;;;;;;;;;17.50;99.90;;;;;;5095570;28;19908;-81
2022/07/21 02:28:01;;;;;;;;;;;17.60;99.90;;;;;;5095345;28;19983;-81
2022/07/21 02:30:27;;;;;;;;;;;17.70;99.90;;;;;;5077340;28;19908;-79
2022/07/21 02:32:53;;;;;;;;;;;17.70;99.90;;;;;;5095488;28;19955;-80
2022/07/21 02:35:19;;;;;;;;;;;17.60;99.90;;;;;;5095043;28;19943;-80
2022/07/21 02:37:45;;;;;;;;;;;17.50;99.90;;;;;;5095240;28;19908;-78
2022/07/21 02:40:11;;;;;;;;;;;17.50;99.90;;;;;;5095428;28;20299;-78
2022/07/21 02:42:37;;;;;;;;;;;17.50;99.90;;;;;;5095232;28;20381;-77
2022/07/21 02:45:06;;;;;;;;;;;17.40;99.90;;;;;;5079876;28;20403;-77
2022/07/21 02:47:32;;;;;;;;;;;17.40;99.90;;;;;;5056684;28;19909;-82
2022/07/21 02:49:57;;;;;;;;;;;17.50;99.90;;;;;;5074894;28;19909;-78
2022/07/21 02:52:23;;;;;;;;;;;17.60;99.90;;;;;;5074635;28;19908;-80
2022/07/21 02:54:48;;;;;;;;;;;17.60;99.90;;;;;;5074461;28;19934;-80
2022/07/21 02:57:14;;;;;;;;;;;17.50;99.90;;;;;;5074832;28;19962;-77
2022/07/21 02:59:39;;;;;;;;;;;17.40;99.90;;;;;;5074723;28;19915;-79
2022/07/21 03:02:05;;;;;;;;;;;17.40;99.90;;;;;;5074516;28;19970;-78
2022/07/21 03:04:31;;;;;;;;;;;17.30;99.90;;;;;;5074259;28;19995;-78
2022/07/21 03:06:56;;;;;;;;;;;17.20;99.90;;;;;;5074405;28;20322;-79
2022/07/21 03:09:22;;;;;;;;;;;17.30;99.90;;;;;;5074399;28;19916;-78
2022/07/21 03:11:47;;;;;;;;;;;17.40;99.90;;;;;;5074492;28;19975;-80
2022/07/21 03:14:13;;;;;;;;;;;17.50;99.90;;;;;;5073662;28;19912;-79
2022/07/21 03:16:38;;;;;;;;;;;17.30;99.90;;;;;;5055701;28;20080;-78
2022/07/21 03:19:04;;;;;;;;;;;17.10;99.90;;;;;;5075618;28;19908;-78
2022/07/21 03:21:30;;;;;;;;;;;17.00;99.90;;;;;;5075908;28;19909;-77
2022/07/21 03:23:55;;;;;;;;;;;17.00;99.90;;;;;;5075191;28;19909;-76
2022/07/21 03:26:21;;;;;;;;;;;17.00;99.90;;;;;;5075345;28;20414;-78
2022/07/21 03:28:47;;;;;;;;;;;16.90;99.90;;;;;;5075311;28;19908;-79
2022/07/21 03:31:12;;;;;;;;;;;16.90;99.90;;;;;;5074223;28;19908;-78
2022/07/21 03:33:38;;;;;;;;;;;17.00;99.90;;;;;;5075036;28;20019;-78
2022/07/21 03:36:04;;;;;;;;;;;17.00;99.90;;;;;;5075126;28;20350;-80
2022/07/21 03:38:29;;;;;;;;;;;17.00;99.90;;;;;;5075449;28;19912;-79
2022/07/21 03:40:55;;;;;;;;;;;17.10;99.90;;;;;;5075245;28;20284;-81
2022/07/21 03:43:20;;;;;;;;;;;17.10;99.90;;;;;;5056499;28;19913;-77
2022/07/21 03:45:46;;;;;;;;;;;17.10;99.90;;;;;;5075172;28;19915;-79
2022/07/21 03:48:12;;;;;;;;;;;17.10;99.90;;;;;;5074066;28;20114;-80
2022/07/21 03:50:39;;;;;;;;;;;17.00;99.90;;;;;;5074883;28;19909;-77
2022/07/21 03:53:05;;;;;;;;;;;16.80;99.90;;;;;;5074636;28;20295;-77
2022/07/21 03:55:31;;;;;;;;;;;16.60;99.90;;;;;;5074599;28;19931;-77
2022/07/21 03:57:58;;;;;;;;;;;16.50;99.90;;;;;;5075033;28;20311;-80
2022/07/21 04:00:25;;;;;;;;;;;16.60;99.90;;;;;;5075092;28;19915;-77
2022/07/21 04:02:51;;;;;;;;;;;16.80;99.90;;;;;;5074594;28;19909;-81
2022/07/21 04:05:17;;;;;;;;;;;16.90;99.90;;;;;;5074305;28;19916;-79
2022/07/21 04:07:44;;;;;;;;;;;16.80;99.90;;;;;;5074783;28;19955;-79
2022/07/21 04:10:10;;;;;;;;;;;16.70;99.90;;;;;;5075193;28;19973;-81
2022/07/21 04:12:36;;;;;;;;;;;16.90;99.90;;;;;;5074767;28;20011;-77
2022/07/21 04:15:03;;;;;;;;;;;16.80;99.90;;;;;;5056014;28;19913;-79
2022/07/21 04:17:29;;;;;;;;;;;16.90;99.90;;;;;;5056154;28;20377;-78
2022/07/21 04:19:54;;;;;;;;;;;16.90;99.90;;;;;;5074447;28;19995;-78
2022/07/21 04:22:20;;;;;;;;;;;16.80;99.90;;;;;;5074548;28;19944;-79
2022/07/21 04:24:45;;;;;;;;;;;16.80;99.90;;;;;;5074142;28;20376;-78
2022/07/21 04:27:11;;;;;;;;;;;16.90;99.90;;;;;;5074496;28;19909;-76
2022/07/21 04:29:37;;;;;;;;;;;16.70;99.90;;;;;;5074853;28;19958;-78
2022/07/21 04:32:03;;;;;;;;;;;16.50;99.90;;;;;;5074080;28;19908;-82
2022/07/21 04:34:28;;;;;;;;;;;16.50;99.90;;;;;;5073907;28;19917;-80
2022/07/21 04:36:54;;;;;;;;;;;16.60;99.90;;;;;;5074182;28;19909;-78
2022/07/21 04:39:20;;;;;;;;;;;16.70;99.90;;;;;;5074530;28;19908;-78
2022/07/21 04:41:45;;;;;;;;;;;16.60;99.90;;;;;;5064502;28;19928;-79
2022/07/21 04:44:11;;;;;;;;;;;16.70;99.90;;;;;;5053879;28;19937;-81
2022/07/21 04:46:36;;;;;;;;;;;16.70;99.90;;;;;;5054152;28;20384;-78
2022/07/21 04:49:02;;;;;;;;;;;16.80;99.90;;;;;;5054265;28;19916;-78
2022/07/21 04:51:27;;;;;;;;;;;16.90;99.90;;;;;;5035943;28;19909;-80
2022/07/21 04:53:53;;;;;;;;;;;16.90;99.90;;;;;;5053933;28;19999;-77
2022/07/21 04:56:19;;;;;;;;;;;16.80;99.90;;;;;;5054199;28;19912;-78
2022/07/21 04:58:44;;;;;;;;;;;16.60;99.90;;;;;;5053952;28;20281;-78
2022/07/21 05:01:10;;;;;;;;;;;16.40;99.90;;;;;;5057570;28;19913;-79
2022/07/21 05:03:35;;;;;;;;;;;16.50;99.90;;;;;;5057643;28;19955;-79
2022/07/21 05:06:01;;;;;;;;;;;16.60;99.90;;;;;;5074854;28;20000;-77
2022/07/21 05:08:27;;;;;;;;;;;16.60;99.90;;;;;;5077248;28;19912;-79
2022/07/21 05:10:53;;;;;;;;;;;16.70;99.90;;;;;;5077805;28;20322;-80
2022/07/21 05:13:18;;;;;;;;;;;16.80;99.90;;;;;;5077491;28;19916;-80
2022/07/21 05:15:44;;;;;;;;;;;17.00;99.90;;;;;;5071998;28;19916;-79
2022/07/21 05:18:10;;;;;;;;;;;17.10;99.90;;;;;;5068198;28;19916;-79
2022/07/21 05:20:35;;;;;;;;;;;17.20;99.90;;;;;;5077151;28;20277;-81
2022/07/21 05:23:01;;;;;;;;;;;17.30;99.90;;;;;;5077426;28;19908;-80
2022/07/21 05:25:28;;;;;;;;;;;17.30;99.90;;;;;;5077142;28;19915;-78
2022/07/21 05:27:54;;;;;;;;;;;17.10;99.90;;;;;;5076962;28;19909;-82
2022/07/21 05:30:19;;;;;;;;;;;16.70;99.90;;;;;;5077130;28;19909;-79
2022/07/21 05:32:45;;;;;;;;;;;16.40;99.90;;;;;;5077188;28;20276;-82
2022/07/21 05:35:11;;;;;;;;;;;16.50;99.90;;;;;;5076682;28;20368;-81
2022/07/21 05:37:39;;;;;;;;;;;16.70;99.90;;;;;;5077114;28;20388;-80
2022/07/21 05:40:06;;;;;;;;;;;16.90;99.90;;;;;;5076872;28;19913;-81
2022/07/21 05:42:32;;;;;;;;;;;16.80;99.90;;;;;;5093225;28;19924;-83
2022/07/21 05:44:58;;;;;;;;;;;16.90;99.90;;;;;;5097021;28;19931;-80
2022/07/21 05:47:24;;;;;;;;;;;17.30;99.90;;;;;;5096957;28;20284;-79
2022/07/21 05:49:49;;;;;;;;;;;17.40;99.90;;;;;;5097126;28;20005;-81
2022/07/21 05:52:15;;;;;;;;;;;17.20;99.90;;;;;;5096674;28;19973;-79
2022/07/21 05:54:40;;;;;;;;;;;16.70;99.90;;;;;;5096401;28;19912;-80
2022/07/21 05:57:06;;;;;;;;;;;16.80;99.90;;;;;;5096877;28;19987;-79
2022/07/21 05:59:32;;;;;;;;;;;17.00;99.90;;;;;;5096632;28;19908;-79
2022/07/21 06:01:58;;;;;;;;;;;17.20;99.90;;;;;;5096712;28;19915;-81
2022/07/21 06:04:24;;;;;;;;;;;17.20;99.90;;;;;;5096263;28;19917;-79
2022/07/21 06:06:49;;;;;;;;;;;17.20;99.90;;;;;;5096450;28;19915;-79
2022/07/21 06:09:15;;;;;;;;;;;17.50;99.90;;;;;;5096311;28;19908;-79
2022/07/21 06:11:41;;;;;;;;;;;17.90;99.90;;;;;;5092070;28;20270;-79
2022/07/21 06:14:06;;;;;;;;;;;18.30;99.90;;;;;;5075432;28;19955;-81
2022/07/21 06:16:32;;;;;;;;;;;18.70;99.90;;;;;;5056122;28;19915;-79
2022/07/21 06:18:58;;;;;;;;;;;19.10;99.90;;;;;;5076033;28;19909;-80
2022/07/21 06:21:23;;;;;;;;;;;19.20;99.90;;;;;;5075360;28;19952;-80
2022/07/21 06:23:49;;;;;;;;;;;18.90;99.90;;;;;;5075108;28;19948;-80
2022/07/21 06:26:14;;;;;;;;;;;18.60;99.90;;;;;;5074779;28;19912;-80
2022/07/21 06:28:41;;;;;;;;;;;18.60;99.90;;;;;;5075315;28;19908;-79
2022/07/21 06:31:07;;;;;;;;;;;18.80;99.90;;;;;;5075141;28;19950;-80
2022/07/21 06:33:32;;;;;;;;;;;19.00;99.90;;;;;;5075012;28;20001;-77
2022/07/21 06:35:58;;;;;;;;;;;18.90;99.90;;;;;;5056706;28;20376;-79
2022/07/21 06:38:23;;;;;;;;;;;19.00;99.90;;;;;;5074748;28;19948;-80
2022/07/21 06:40:49;;;;;;;;;;;19.10;99.90;;;;;;5056872;28;19908;-79
2022/07/21 06:43:14;;;;;;;;;;;19.00;99.90;;;;;;5075262;28;19912;-81
2022/07/21 06:45:40;;;;;;;;;;;19.50;99.90;;;;;;5074737;28;19915;-79
2022/07/21 06:48:07;;;;;;;;;;;19.70;99.90;;;;;;5074932;28;19915;-81
2022/07/21 06:50:32;;;;;;;;;;;19.90;99.90;;;;;;5056983;28;19909;-80
2022/07/21 06:52:58;;;;;;;;;;;19.90;99.90;;;;;;5075182;28;19965;-80
2022/07/21 06:55:24;;;;;;;;;;;19.70;99.90;;;;;;5074738;28;19978;-80
2022/07/21 06:57:49;;;;;;;;;;;19.80;99.90;;;;;;5074799;28;19915;-80
2022/07/21 07:00:15;;;;;;;;;;;20.10;99.90;;;;;;5056953;28;19950;-80
2022/07/21 07:02:41;;;;;;;;;;;20.00;99.90;;;;;;5075054;28;19908;-80
2022/07/21 07:05:06;;;;;;;;;;;20.10;99.90;;;;;;5081513;28;19935;-83
2022/07/21 07:07:32;;;;;;;;;;;20.30;99.90;;;;;;5095152;28;19954;-78
2022/07/21 07:09:59;;;;;;;;;;;20.60;99.90;;;;;;5094894;28;19991;-78
2022/07/21 07:12:24;;;;;;;;;;;20.50;99.90;;;;;;5076480;28;19930;-81
2022/07/21 07:14:50;;;;;;;;;;;20.80;99.90;;;;;;5094197;28;19908;-79
2022/07/21 07:17:18;;;;;;;;;;;21.40;99.90;;;;;;5056651;28;19908;-79
2022/07/21 07:19:44;;;;;;;;;;;21.20;99.90;;;;;;5094943;28;19908;-79
2022/07/21 07:22:10;;;;;;;;;;;21.20;99.90;;;;;;5094092;28;20010;-77
2022/07/21 07:24:36;;;;;;;;;;;21.40;99.90;;;;;;5093448;28;19940;-82
2022/07/21 07:27:02;;;;;;;;;;;21.30;99.90;;;;;;5094100;28;20364;-79
2022/07/21 07:29:28;;;;;;;;;;;21.70;99.90;;;;;;5094143;28;19923;-82
2022/07/21 07:31:55;;;;;;;;;;;21.20;99.90;;;;;;5075934;28;20000;-80
2022/07/21 07:34:21;;;;;;;;;;;21.00;99.90;;;;;;5094164;28;19912;-80
2022/07/21 07:36:46;;;;;;;;;;;21.40;99.90;;;;;;5073904;28;19908;-79
2022/07/21 07:39:12;;;;;;;;;;;22.00;99.90;;;;;;5073578;28;19955;-80
2022/07/21 07:41:38;;;;;;;;;;;22.20;99.90;;;;;;5065446;28;19928;-80
2022/07/21 07:44:03;;;;;;;;;;;21.60;99.90;;;;;;5053922;28;19948;-79
2022/07/21 07:46:29;;;;;;;;;;;22.10;99.90;;;;;;5070585;28;20340;-82
2022/07/21 07:48:55;;;;;;;;;;;22.30;99.90;;;;;;5073770;28;19909;-79
2022/07/21 07:51:20;;;;;;;;;;;22.30;99.90;;;;;;5073670;28;19908;-81
2022/07/21 07:53:46;;;;;;;;;;;22.20;99.90;;;;;;5073493;28;19927;-80
2022/07/21 07:56:11;;;;;;;;;;;22.00;99.90;;;;;;5073283;28;20077;-79
2022/07/21 07:58:37;;;;;;;;;;;22.10;99.90;;;;;;5073804;28;19991;-79
2022/07/21 08:01:05;;;;;;;;;;;22.30;99.90;;;;;;5073418;28;19909;-80
2022/07/21 08:03:30;;;;;;;;;;;22.40;99.90;;;;;;5073473;28;20381;-81
2022/07/21 08:06:03;;;;;;;;;;;22.40;99.90;;;;;;5055354;28;19909;-80
2022/07/21 08:08:29;;;;;;;;;;;22.10;99.90;;;;;;5073603;28;19916;-82
2022/07/21 08:10:54;;;;;;;;;;;22.50;99.90;;;;;;5073522;28;19962;-82
2022/07/21 08:13:20;;;;;;;;;;;23.10;99.90;;;;;;5073432;28;19919;-80
2022/07/21 08:15:46;;;;;;;;;;;23.80;99.90;;;;;;5072921;28;20284;-80
2022/07/21 08:18:12;;;;;;;;;;;23.80;99.90;;;;;;5054517;28;20380;-82
2022/07/21 08:20:37;;;;;;;;;;;23.90;99.90;;;;;;5073187;28;19909;-78
2022/07/21 08:23:04;;;;;;;;;;;24.30;99.90;;;;;;5073119;28;19909;-79
2022/07/21 08:25:29;;;;;;;;;;;24.40;99.90;;;;;;5072759;28;19908;-80
2022/07/21 08:27:55;;;;;;;;;;;24.70;99.70;;;;;;5072992;28;19909;-80
2022/07/21 08:30:21;;;;;;;;;;;24.10;97.30;;;;;;5073159;28;19909;-81
2022/07/21 08:32:47;;;;;;;;;;;23.90;99.90;;;;;;5073447;28;19962;-78
2022/07/21 08:35:12;;;;;;;;;;;23.70;99.30;;;;;;5075941;28;19992;-82
2022/07/21 08:37:39;;;;;;;;;;;24.00;99.90;;;;;;5078099;28;19940;-79
2022/07/21 08:40:06;;;;;;;;;;;23.90;98.70;;;;;;5077515;28;19908;-78
2022/07/21 08:42:31;;;;;;;;;;;23.70;99.90;;;;;;5090806;28;19920;-80
2022/07/21 08:44:57;;;;;;;;;;;24.00;99.80;;;;;;5094717;28;20608;-82
2022/07/21 08:47:24;;;;;;;;;;;24.90;98.40;;;;;;5077270;28;20402;-82
2022/07/21 08:49:50;;;;;;;;;;;24.90;95.90;;;;;;5076880;28;19908;-80
2022/07/21 08:52:15;;;;;;;;;;;25.50;95.90;;;;;;5076414;28;19916;-82
2022/07/21 08:54:41;;;;;;;;;;;25.10;94.30;;;;;;5076419;28;19912;-82
2022/07/21 08:57:07;;;;;;;;;;;24.70;96.50;;;;;;5076921;28;20010;-80
2022/07/21 08:59:32;;;;;;;;;;;25.40;96.00;;;;;;5076674;28;19908;-83
2022/07/21 09:01:58;;;;;;;;;;;26.20;92.70;;;;;;5076589;28;19909;-80
2022/07/21 09:04:28;;;;;;;;;;;26.70;91.50;;;;;;5076116;28;20445;-81
2022/07/21 09:07:00;;;;;;;;;;;27.00;88.10;;;;;;5076081;28;19908;-80
2022/07/21 09:09:27;;;;;;;;;;;27.10;90.10;;;;;;5076207;28;19916;-81
2022/07/21 09:11:53;;;;;;;;;;;28.20;87.10;;;;;;5076373;28;19909;-80
2022/07/21 09:14:23;;;;;;;;;;;29.10;82.90;;;;;;5076048;28;20041;-83
2022/07/21 09:16:53;;;;;;;;;;;29.10;79.80;;;;;;5075659;28;20388;-80
2022/07/21 09:19:26;;;;;;;;;;;29.50;78.20;;;;;;5057621;28;19917;-83
2022/07/21 09:21:53;;;;;;;;;;;29.00;76.20;;;;;;5076249;28;19908;-82
2022/07/21 09:24:22;;;;;;;;;;;28.30;78.30;;;;;;5075952;28;19951;-82
2022/07/21 09:27:07;;;;;;;;;;;28.80;77.40;;;;;;5075536;28;19908;-82
2022/07/21 09:29:37;;;;;;;;;;;29.50;75.80;;;;;;5075914;28;19913;-82
2022/07/21 09:32:16;;;;;;;;;;;29.00;71.90;;;;;;5075751;28;19908;-83
2022/07/21 09:34:42;;;;;;;;;;;29.30;73.30;;;;;;5075893;28;20346;-83
2022/07/21 09:37:08;;;;;;;;;;;30.00;72.40;;;;;;5075724;28;19931;-80
2022/07/21 09:40:00;;;;;;;;;;;29.90;70.40;;;;;;5075893;28;19908;-80
2022/07/21 09:42:27;;;;;;;;;;;28.40;71.50;;;;;;5073300;28;19921;-79
2022/07/21 09:44:57;;;;;;;;;;;27.30;75.30;;;;;;5075544;28;20007;-83
2022/07/21 09:47:26;;;;;;;;;;;27.70;75.60;;;;;;5073764;28;20500;-83
2022/07/21 09:49:52;;;;;;;;;;;27.90;73.40;;;;;;5075607;28;19909;-81
2022/07/21 09:52:22;;;;;;;;;;;28.10;73.70;;;;;;5075356;28;19908;-82
2022/07/21 09:54:50;;;;;;;;;;;28.10;73.00;;;;;;5075676;28;19958;-82
2022/07/21 09:57:17;;;;;;;;;;;28.30;72.30;;;;;;5075610;28;19908;-83
2022/07/21 09:59:44;;;;;;;;;;;29.10;70.40;;;;;;5075371;28;19948;-83
2022/07/21 10:02:23;;;;;;;;;;;29.50;68.60;;;;;;5075566;28;20419;-81
2022/07/21 10:04:55;;;;;;;;;;;29.00;67.60;;;;;;5075566;28;20395;-80
2022/07/21 10:07:21;;;;;;;;;;;28.70;69.40;;;;;;5075247;28;19909;-83
2022/07/21 10:09:47;;;;;;;;;;;28.40;67.60;;;;;;5075538;28;19912;-82
2022/07/21 10:12:14;;;;;;;;;;;29.00;68.30;;;;;;5075239;28;20280;-81
2022/07/21 10:14:39;;;;;;;;;;;29.60;67.10;;;;;;5074766;28;19916;-80
2022/07/21 10:17:06;;;;;;;;;;;31.10;62.80;;;;;;5074549;28;20372;-81
2022/07/21 10:19:51;;;;;;;;;;;31.20;62.20;;;;;;5048463;28;19915;-84
2022/07/21 10:22:25;;;;;;;;;;;30.80;62.30;;;;;;5074377;28;20061;-82
2022/07/21 10:24:52;;;;;;;;;;;30.70;62.60;;;;;;5074875;28;19916;-83
2022/07/21 10:27:17;;;;;;;;;;;31.40;60.90;;;;;;5074382;28;20022;-83
2022/07/21 10:29:49;;;;;;;;;;;31.20;61.20;;;;;;5074646;28;20043;-81
2022/07/21 10:32:15;;;;;;;;;;;31.70;60.40;;;;;;5074779;28;19908;-84
2022/07/21 10:34:42;;;;;;;;;;;31.20;60.10;;;;;;5074576;28;19913;-80
2022/07/21 10:37:08;;;;;;;;;;;31.70;61.30;;;;;;5074167;28;20391;-80
2022/07/21 10:39:34;;;;;;;;;;;33.10;57.30;;;;;;5074303;28;19908;-80
2022/07/21 10:42:12;;;;;;;;;;;33.40;55.80;;;;;;5065194;28;19987;-80
2022/07/21 10:44:38;;;;;;;;;;;33.10;55.10;;;;;;5054492;28;19917;-84
2022/07/21 10:47:07;;;;;;;;;;;32.20;55.60;;;;;;5053912;28;19919;-82
2022/07/21 10:49:51;;;;;;;;;;;32.40;55.90;;;;;;5054429;28;19963;-82
2022/07/21 10:52:35;;;;;;;;;;;31.60;56.90;;;;;;5054051;28;19915;-82
2022/07/21 10:55:09;;;;;;;;;;;31.60;57.50;;;;;;5036490;28;19960;-83
2022/07/21 10:57:36;;;;;;;;;;;31.60;57.00;;;;;;5054209;28;19909;-79
2022/07/21 11:00:19;;;;;;;;;;;31.20;56.80;;;;;;5054212;28;20407;-83
2022/07/21 11:02:46;;;;;;;;;;;30.80;56.80;;;;;;5054092;28;19908;-84
2022/07/21 11:05:12;;;;;;;;;;;31.10;57.20;;;;;;5054383;28;20391;-82
2022/07/21 11:07:56;;;;;;;;;;;32.50;56.70;;;;;;5073945;28;19951;-83
2022/07/21 11:10:24;;;;;;;;;;;34.70;54.30;;;;;;5074052;28;19909;-78
2022/07/21 11:12:57;;;;;;;;;;;36.40;50.60;;;;;;5055735;28;20297;-83
2022/07/21 11:15:43;;;;;;;;;;;38.50;47.50;;;;;;5073473;28;19916;-80
2022/07/21 11:18:08;;;;;;;;;;;40.30;44.60;;;;;;5063039;28;19912;-81
2022/07/21 11:20:34;;;;;;;;;;;40.40;44.10;;;;;;5060599;28;19923;-82
2022/07/21 11:23:02;;;;;;;;;;;39.70;43.70;;;;;;5073720;28;19944;-82
2022/07/21 11:25:29;;;;;;;;;;;39.60;43.30;;;;;;5055516;28;19908;-81
2022/07/21 11:27:54;;;;;;;;;;;38.50;44.50;;;;;;5073298;28;20003;-81
2022/07/21 11:30:20;;;;;;;;;;;38.00;43.70;;;;;;5073508;28;19955;-81
2022/07/21 11:32:47;;;;;;;;;;;38.10;44.90;;;;;;5073354;28;19909;-80
2022/07/21 11:35:13;;;;;;;;;;;36.90;45.40;;;;;;5073575;28;19940;-82
2022/07/21 11:37:45;;;;;;;;;;;37.10;45.50;;;;;;5073184;28;19916;-80
2022/07/21 11:40:12;;;;;;;;;;;37.10;45.00;;;;;;5073199;28;19914;-80
2022/07/21 11:42:38;;;;;;;;;;;35.70;44.90;;;;;;5087758;28;20295;-81
2022/07/21 11:45:05;;;;;;;;;;;35.30;46.30;;;;;;5093874;28;20007;-81
2022/07/21 11:47:30;;;;;;;;;;;35.50;46.50;;;;;;5094448;28;20437;-80
2022/07/21 11:49:58;;;;;;;;;;;37.20;46.00;;;;;;5095175;28;19908;-80
2022/07/21 11:52:25;;;;;;;;;;;37.70;44.00;;;;;;5095375;28;19995;-81
2022/07/21 11:54:52;;;;;;;;;;;36.60;44.10;;;;;;5094868;28;19912;-80
2022/07/21 11:57:19;;;;;;;;;;;36.30;45.30;;;;;;5094573;28;19908;-82
2022/07/21 11:59:45;;;;;;;;;;;36.80;45.00;;;;;;5093560;28;20431;-80
2022/07/21 12:02:15;;;;;;;;;;;36.80;44.70;;;;;;5093350;28;20272;-79
2022/07/21 12:04:41;;;;;;;;;;;38.20;44.40;;;;;;5093414;28;19915;-79
2022/07/21 12:07:14;;;;;;;;;;;37.80;43.90;;;;;;5051658;28;20308;-80
2022/07/21 12:09:41;;;;;;;;;;;37.30;44.10;;;;;;5072313;28;19913;-78
2022/07/21 12:12:06;;;;;;;;;;;37.40;44.50;;;;;;5073026;28;19999;-80
2022/07/21 12:14:58;;;;;;;;;;;37.70;43.50;;;;;;5073352;28;19999;-80
2022/07/21 12:17:32;;;;;;;;;;;37.90;42.30;;;;;;5070519;28;19914;-80
2022/07/21 12:19:58;;;;;;;;;;;38.50;43.30;;;;;;5074108;28;19995;-79
2022/07/21 12:22:53;;;;;;;;;;;37.50;41.70;;;;;;5073467;28;19974;-81
2022/07/21 12:25:29;;;;;;;;;;;37.00;43.50;;;;;;5064246;28;20014;-82
2022/07/21 12:27:56;;;;;;;;;;;37.40;43.20;;;;;;5073525;28;20364;-79
2022/07/21 12:30:44;;;;;;;;;;;37.20;43.00;;;;;;5073316;28;19958;-81
2022/07/21 12:33:09;;;;;;;;;;;38.70;42.90;;;;;;5073186;28;19923;-82
2022/07/21 12:35:39;;;;;;;;;;;40.60;41.50;;;;;;5073683;28;19909;-82
2022/07/21 12:38:12;;;;;;;;;;;40.50;40.90;;;;;;5073218;28;19915;-82
2022/07/21 12:40:42;;;;;;;;;;;39.80;41.10;;;;;;5073061;28;19908;-81
2022/07/21 12:43:15;;;;;;;;;;;39.10;41.40;;;;;;5072801;28;19927;-82
2022/07/21 12:45:48;;;;;;;;;;;37.60;42.60;;;;;;5073025;28;19909;-80
2022/07/21 12:48:15;;;;;;;;;;;37.40;42.70;;;;;;5073136;28;19921;-80
2022/07/21 12:50:42;;;;;;;;;;;39.40;41.60;;;;;;5073211;28;20361;-81
2022/07/21 12:53:11;;;;;;;;;;;38.50;41.10;;;;;;5072971;28;19919;-81
2022/07/21 12:55:37;;;;;;;;;;;36.90;43.00;;;;;;5073029;28;19908;-83
2022/07/21 12:58:03;;;;;;;;;;;37.30;43.00;;;;;;5073132;28;19909;-82
2022/07/21 13:00:29;;;;;;;;;;;38.50;42.80;;;;;;5072932;28;19908;-80
2022/07/21 13:02:55;;;;;;;;;;;38.30;41.70;;;;;;5073062;28;19915;-79
2022/07/21 13:05:22;;;;;;;;;;;39.20;42.20;;;;;;5072886;28;19916;-82
2022/07/21 13:07:47;;;;;;;;;;;39.10;42.20;;;;;;5073087;28;19908;-82
2022/07/21 13:10:13;;;;;;;;;;;40.00;41.80;;;;;;5073200;28;19916;-81
2022/07/21 13:12:39;;;;;;;;;;;39.50;41.30;;;;;;5072836;28;19909;-80
2022/07/21 13:15:06;;;;;;;;;;;37.10;42.70;;;;;;5072484;28;20001;-81
2022/07/21 13:17:32;;;;;;;;;;;37.40;43.00;;;;;;5072796;28;19962;-80
2022/07/21 13:19:57;;;;;;;;;;;36.70;43.40;;;;;;5073387;28;20388;-81
2022/07/21 13:22:23;;;;;;;;;;;36.50;43.50;;;;;;5075424;28;19913;-81
2022/07/21 13:24:49;;;;;;;;;;;37.40;42.90;;;;;;5076265;28;19958;-79
2022/07/21 13:27:14;;;;;;;;;;;37.10;43.00;;;;;;5076204;28;20377;-81
2022/07/21 13:29:40;;;;;;;;;;;36.40;43.20;;;;;;5044737;28;20039;-81
2022/07/21 13:32:06;;;;;;;;;;;37.30;43.00;;;;;;5055696;28;20297;-81
2022/07/21 13:34:32;;;;;;;;;;;38.00;42.20;;;;;;5055703;28;19912;-81
2022/07/21 13:36:58;;;;;;;;;;;37.60;42.90;;;;;;5056010;28;19916;-79
2022/07/21 13:39:26;;;;;;;;;;;38.10;42.00;;;;;;5055995;28;19908;-82
2022/07/21 13:41:52;;;;;;;;;;;38.40;42.10;;;;;;5063893;28;19920;-81
2022/07/21 13:44:18;;;;;;;;;;;38.40;42.50;;;;;;5075957;28;19963;-80
2022/07/21 13:46:43;;;;;;;;;;;37.00;42.90;;;;;;5075929;28;19909;-79
2022/07/21 13:49:09;;;;;;;;;;;36.80;43.10;;;;;;5075781;28;19912;-81
2022/07/21 13:51:35;;;;;;;;;;;36.90;43.10;;;;;;5076253;28;19908;-81
2022/07/21 13:54:01;;;;;;;;;;;35.50;44.50;;;;;;5075833;28;19919;-82
2022/07/21 13:56:27;;;;;;;;;;;36.20;44.10;;;;;;5075761;28;19931;-80
2022/07/21 13:58:52;;;;;;;;;;;36.20;43.80;;;;;;5075794;28;19931;-80
2022/07/21 14:01:18;;;;;;;;;;;36.30;43.40;;;;;;5075656;28;20428;-81
2022/07/21 14:03:44;;;;;;;;;;;36.20;43.50;;;;;;5075507;28;19908;-81
2022/07/21 14:06:10;;;;;;;;;;;37.00;43.00;;;;;;5057728;28;19920;-82
2022/07/21 14:08:36;;;;;;;;;;;37.40;42.90;;;;;;5075478;28;19908;-81
2022/07/21 14:11:02;;;;;;;;;;;37.90;42.50;;;;;;5075589;28;19912;-81
2022/07/21 14:13:28;;;;;;;;;;;37.20;42.50;;;;;;5075281;28;19969;-79
2022/07/21 14:15:54;;;;;;;;;;;36.80;41.90;;;;;;5075270;28;19908;-81
2022/07/21 14:18:19;;;;;;;;;;;36.50;42.40;;;;;;5075253;28;19912;-80